Terminal Aerodrome Forecast
Issued by NWS

Home | Current Version | Previous Version | Text Only | Print | Product List | Glossary On
Versions: 1 2 3 4 5 6 7 8 9 10 11 12 13 14 15 16 17
000
FTUS43 KIND 272320
TAFBMG
TAF
KBMG 272320Z 2800/2824 00000KT P6SM VCSH BKN100
     FM280100 VRB02KT P6SM BKN100
     FM280600 00000KT 3SM BR VCTS SCT035 BKN050CB
      TEMPO 2807/2811 1SM -TSRA BKN035 OVC050CB
     FM281200 00000KT 2SM BR OVC050
      AMD LTD TO CLD VIS AND WIND TIL 281300=

USA.gov is the U.S. government's official web portal to all federal, state and local government web resources and services.